Time;durP1;ratioP1;P1;durP2;ratioP2;P2;SDS_P1;SDS_P2;PMS_P1;PMS_P2;Temp;Humidity;BMP_temperature;BMP_pressure;BME280_temperature;BME280_humidity;BME280_pressure;Samples;Min_cycle;Max_cycle;Signal;HPM_P1;HPM_P2
2023/10/16 00:01:54;;;;;;;5.35;2.55;;;;;;;;;;5050354;28;20036;-68
2023/10/16 00:04:21;;;;;;;6.25;3.10;;;;;;;;;;5051830;28;20053;-68
2023/10/16 00:06:49;;;;;;;4.78;3.13;;;;;;;;;;5051383;28;20031;-68
2023/10/16 00:09:21;;;;;;;7.97;3.53;;;;;;;;;;5050330;28;20497;-68
2023/10/16 00:11:47;;;;;;;6.15;3.33;;;;;;;;;;5052262;28;20029;-68
2023/10/16 00:14:23;;;;;;;4.63;2.80;;;;;;;;;;5050601;28;20028;-68
2023/10/16 00:16:50;;;;;;;7.40;3.30;;;;;;;;;;5064043;28;20063;-68
2023/10/16 00:19:16;;;;;;;7.75;3.35;;;;;;;;;;5065637;28;20028;-68
2023/10/16 00:21:45;;;;;;;6.97;3.50;;;;;;;;;;5065857;28;20047;-68
2023/10/16 00:24:12;;;;;;;4.88;2.55;;;;;;;;;;5058184;28;20075;-68
2023/10/16 00:26:48;;;;;;;9.00;3.95;;;;;;;;;;5065075;28;20388;-68
2023/10/16 00:29:24;;;;;;;6.53;2.95;;;;;;;;;;5036920;28;20059;-68
2023/10/16 00:31:58;;;;;;;5.82;2.85;;;;;;;;;;5052226;28;20052;-68
2023/10/16 00:34:25;;;;;;;9.30;3.15;;;;;;;;;;5063643;28;20053;-68
2023/10/16 00:36:54;;;;;;;5.78;3.20;;;;;;;;;;5068474;28;20025;-69
2023/10/16 00:39:20;;;;;;;5.50;3.20;;;;;;;;;;5055063;28;20025;-68
2023/10/16 00:41:46;;;;;;;7.32;3.15;;;;;;;;;;5053612;28;20045;-68
2023/10/16 00:44:21;;;;;;;7.47;3.67;;;;;;;;;;5047516;28;20025;-68
2023/10/16 00:46:52;;;;;;;5.88;3.63;;;;;;;;;;5052277;28;20017;-68
2023/10/16 00:49:19;;;;;;;5.85;3.28;;;;;;;;;;5051713;28;20041;-68
2023/10/16 00:51:46;;;;;;;8.30;3.38;;;;;;;;;;5061863;28;20047;-68
2023/10/16 00:54:18;;;;;;;7.75;3.28;;;;;;;;;;5069846;28;20028;-68
2023/10/16 00:56:49;;;;;;;7.60;3.70;;;;;;;;;;5060388;28;20033;-68
2023/10/16 00:59:18;;;;;;;7.40;3.70;;;;;;;;;;5057718;28;20458;-68
2023/10/16 01:01:44;;;;;;;5.78;3.75;;;;;;;;;;5064761;28;20031;-68
2023/10/16 01:04:11;;;;;;;7.72;3.55;;;;;;;;;;5042127;28;20446;-69
2023/10/16 01:06:37;;;;;;;7.40;3.53;;;;;;;;;;5059587;28;20469;-68
2023/10/16 01:09:22;;;;;;;7.15;3.70;;;;;;;;;;5064012;28;20033;-68
2023/10/16 01:11:49;;;;;;;4.63;3.10;;;;;;;;;;5050131;28;20025;-68
2023/10/16 01:14:16;;;;;;;5.70;3.25;;;;;;;;;;5053378;28;20017;-68
2023/10/16 01:16:43;;;;;;;7.55;3.78;;;;;;;;;;5055965;28;20040;-68
2023/10/16 01:19:10;;;;;;;6.38;3.35;;;;;;;;;;5063156;28;20032;-66
2023/10/16 01:21:36;;;;;;;5.85;3.17;;;;;;;;;;5065318;28;20021;-67
2023/10/16 01:24:21;;;;;;;6.32;3.55;;;;;;;;;;5056243;28;20074;-67
2023/10/16 01:26:48;;;;;;;6.78;3.45;;;;;;;;;;5066235;28;20013;-67
2023/10/16 01:29:15;;;;;;;6.88;3.63;;;;;;;;;;5050816;28;20075;-67
2023/10/16 01:31:44;;;;;;;6.05;3.08;;;;;;;;;;5047937;28;20670;-68
2023/10/16 01:34:13;;;;;;;5.68;2.97;;;;;;;;;;5031900;28;20370;-67
2023/10/16 01:36:45;;;;;;;3.83;3.13;;;;;;;;;;5050132;28;20457;-67
2023/10/16 01:39:47;;;;;;;3.75;3.00;;;;;;;;;;5053458;28;20362;-67
2023/10/16 01:42:01;;;;;;;7.70;3.53;;;;;;;;;;5059390;28;20083;-67
2023/10/16 01:44:30;;;;;;;4.93;3.20;;;;;;;;;;5066964;28;20159;-68
2023/10/16 01:46:57;;;;;;;6.55;3.50;;;;;;;;;;5056918;28;20027;-67
2023/10/16 01:49:24;;;;;;;6.15;3.80;;;;;;;;;;5056208;28;20029;-67
2023/10/16 01:51:51;;;;;;;7.68;3.60;;;;;;;;;;5047042;28;20610;-67
2023/10/16 01:54:22;;;;;;;7.00;3.42;;;;;;;;;;5069144;28;20008;-67
2023/10/16 01:56:49;;;;;;;8.57;3.70;;;;;;;;;;5059423;28;20079;-67
2023/10/16 01:59:15;;;;;;;6.85;3.42;;;;;;;;;;5059590;28;20465;-67
2023/10/16 02:01:41;;;;;;;7.60;3.90;;;;;;;;;;5066138;28;20032;-67
2023/10/16 02:04:07;;;;;;;6.53;3.53;;;;;;;;;;5060478;28;20481;-67
2023/10/16 02:06:33;;;;;;;7.97;3.97;;;;;;;;;;5058103;28;20025;-67
2023/10/16 02:09:04;;;;;;;7.47;3.65;;;;;;;;;;5061889;28;20036;-67
2023/10/16 02:11:30;;;;;;;9.68;3.83;;;;;;;;;;5063425;28;20021;-67
2023/10/16 02:13:56;;;;;;;9.25;3.67;;;;;;;;;;5053389;28;20100;-67
2023/10/16 02:16:25;;;;;;;5.40;3.80;;;;;;;;;;5060046;28;20020;-67
2023/10/16 02:18:55;;;;;;;6.07;3.35;;;;;;;;;;5066451;28;20021;-67
2023/10/16 02:21:22;;;;;;;;;;;;;;;;;;5043544;28;20033;-67
2023/10/16 02:23:48;;;;;;;6.47;3.50;;;;;;;;;;5052086;28;19975;-66
2023/10/16 02:26:18;;;;;;;8.18;3.53;;;;;;;;;;5052347;28;20108;-68
2023/10/16 02:28:46;;;;;;;6.43;3.55;;;;;;;;;;5053827;28;20111;-68
2023/10/16 02:31:19;;;;;;;12.50;4.25;;;;;;;;;;5055956;28;20024;-68
2023/10/16 02:33:46;;;;;;;5.40;3.40;;;;;;;;;;5060736;28;20044;-68
2023/10/16 02:36:15;;;;;;;4.50;3.20;;;;;;;;;;5070084;28;20038;-68
2023/10/16 02:38:43;;;;;;;8.70;4.10;;;;;;;;;;5060085;28;20451;-68
2023/10/16 02:41:09;;;;;;;6.50;3.38;;;;;;;;;;5053981;28;20075;-68
2023/10/16 02:43:41;;;;;;;6.60;3.50;;;;;;;;;;5053032;28;20017;-68
2023/10/16 02:46:09;;;;;;;5.70;3.13;;;;;;;;;;5049743;28;20459;-68
2023/10/16 02:48:35;;;;;;;8.30;3.60;;;;;;;;;;5056751;28;20071;-68
2023/10/16 02:51:02;;;;;;;6.57;3.38;;;;;;;;;;5049918;28;20033;-68
2023/10/16 02:53:29;;;;;;;9.43;3.80;;;;;;;;;;5048804;28;20021;-68
2023/10/16 02:56:04;;;;;;;5.93;3.53;;;;;;;;;;5052811;28;20044;-68
2023/10/16 02:58:30;;;;;;;7.10;3.38;;;;;;;;;;5058024;28;20035;-68
2023/10/16 03:00:57;;;;;;;8.25;3.55;;;;;;;;;;5060162;28;20483;-68
2023/10/16 03:03:27;;;;;;;7.30;3.47;;;;;;;;;;5066413;28;20128;-68
2023/10/16 03:05:56;;;;;;;7.07;4.03;;;;;;;;;;5057668;28;20020;-68
2023/10/16 03:08:29;;;;;;;5.47;3.55;;;;;;;;;;5064860;28;20075;-68
2023/10/16 03:10:56;;;;;;;6.90;3.85;;;;;;;;;;5070297;28;20550;-68
2023/10/16 03:13:24;;;;;;;8.95;4.20;;;;;;;;;;5054781;28;20028;-68
2023/10/16 03:15:58;;;;;;;5.97;4.03;;;;;;;;;;5057264;28;20013;-68
2023/10/16 03:18:23;;;;;;;6.45;4.10;;;;;;;;;;5059415;28;20032;-68
2023/10/16 03:21:02;;;;;;;8.38;3.97;;;;;;;;;;5069192;28;20362;-68
2023/10/16 03:23:28;;;;;;;7.70;4.68;;;;;;;;;;5054118;28;20025;-68
2023/10/16 03:25:55;;;;;;;5.38;3.80;;;;;;;;;;5063668;28;20435;-68
2023/10/16 03:28:21;;;;;;;4.50;3.58;;;;;;;;;;5060066;28;20094;-68
2023/10/16 03:30:47;;;;;;;5.55;3.88;;;;;;;;;;5054166;28;20029;-69
2023/10/16 03:33:16;;;;;;;6.32;3.83;;;;;;;;;;5040185;28;20489;-68
2023/10/16 03:35:49;;;;;;;8.00;4.40;;;;;;;;;;5063535;28;20028;-68
2023/10/16 03:38:24;;;;;;;10.13;4.88;;;;;;;;;;5060664;28;20017;-68
2023/10/16 03:40:51;;;;;;;10.05;4.43;;;;;;;;;;5061325;28;20096;-68
2023/10/16 03:43:22;;;;;;;7.05;4.47;;;;;;;;;;5062044;28;20025;-68
2023/10/16 03:45:49;;;;;;;6.82;3.83;;;;;;;;;;5046568;28;20022;-68
2023/10/16 03:48:17;;;;;;;8.07;4.57;;;;;;;;;;5053923;28;20111;-68
2023/10/16 03:50:43;;;;;;;8.52;5.20;;;;;;;;;;5062360;28;20020;-68
2023/10/16 03:53:09;;;;;;;6.95;4.63;;;;;;;;;;5058400;28;20037;-68
2023/10/16 03:55:47;;;;;;;8.68;4.40;;;;;;;;;;5051616;28;20052;-67
2023/10/16 03:58:13;;;;;;;9.85;4.65;;;;;;;;;;5051916;28;20044;-68
2023/10/16 04:00:50;;;;;;;10.65;5.32;;;;;;;;;;5052207;28;20529;-68
2023/10/16 04:03:16;;;;;;;11.85;5.50;;;;;;;;;;5050033;28;20086;-68
2023/10/16 04:05:45;;;;;;;8.05;5.20;;;;;;;;;;5052560;28;20024;-68
2023/10/16 04:08:15;;;;;;;10.68;4.57;;;;;;;;;;5052881;28;20078;-68
2023/10/16 04:10:47;;;;;;;7.47;4.60;;;;;;;;;;5049389;28;20017;-68
2023/10/16 04:13:14;;;;;;;8.43;5.13;;;;;;;;;;5050228;28;20086;-68
2023/10/16 04:18:17;;;;;;;6.78;4.28;;;;;;;;;;5051255;28;20032;-68
2023/10/16 04:20:44;;;;;;;6.78;5.07;;;;;;;;;;5052020;28;20477;-67
2023/10/16 04:29:22;;;;;;;11.35;5.13;;;;;;;;;;5048236;28;20117;-67
2023/10/16 04:31:44;;;;;;;8.90;5.10;;;;;;;;;;5049093;28;20123;-67
2023/10/16 04:34:53;;;;;;;13.32;6.32;;;;;;;;;;5060324;28;20049;-67
2023/10/16 04:50:37;;;;;;;10.63;6.43;;;;;;;;;;5060935;28;20477;-67
2023/10/16 05:01:17;;;;;;;9.63;6.70;;;;;;;;;;5061274;28;20649;-68
2023/10/16 05:11:36;;;;;;;10.20;6.20;;;;;;;;;;5063298;28;20096;-67
2023/10/16 05:17:21;;;;;;;8.35;5.38;;;;;;;;;;5052405;28;20114;-67
2023/10/16 05:19:53;;;;;;;10.13;6.10;;;;;;;;;;5038059;28;20027;-67
2023/10/16 06:14:34;;;;;;;14.05;7.22;;;;;;;;;;5062906;28;20496;-67
2023/10/16 06:17:00;;;;;;;13.35;7.28;;;;;;;;;;5060347;28;20043;-67
2023/10/16 06:19:26;;;;;;;12.70;7.97;;;;;;;;;;5068776;28;20024;-67
2023/10/16 06:21:56;;;;;;;15.75;7.00;;;;;;;;;;5057595;28;20525;-67
2023/10/16 06:24:28;;;;;;;15.35;7.90;;;;;;;;;;5058824;28;20033;-67
2023/10/16 06:27:01;;;;;;;12.25;7.30;;;;;;;;;;5068456;28;20016;-68
2023/10/16 06:29:34;;;;;;;11.80;6.85;;;;;;;;;;5061498;28;20143;-67
2023/10/16 06:32:21;;;;;;;8.95;6.45;;;;;;;;;;5057845;28;20013;-67
2023/10/16 06:34:57;;;;;;;10.50;6.85;;;;;;;;;;5058209;28;20667;-67
2023/10/16 06:37:23;;;;;;;12.20;7.30;;;;;;;;;;5065451;28;20025;-64
2023/10/16 06:39:54;;;;;;;9.48;6.70;;;;;;;;;;5049196;28;20025;-65
2023/10/16 06:42:20;;;;;;;11.68;7.47;;;;;;;;;;5060741;28;20021;-66
2023/10/16 06:44:50;;;;;;;12.38;7.07;;;;;;;;;;5071288;28;20036;-66
2023/10/16 06:47:17;;;;;;;11.23;6.63;;;;;;;;;;5058854;28;20029;-66
2023/10/16 06:49:43;;;;;;;18.63;7.80;;;;;;;;;;5054036;28;20025;-66
2023/10/16 06:52:17;;;;;;;23.80;7.70;;;;;;;;;;5067772;28;20028;-66
2023/10/16 06:54:44;;;;;;;19.00;7.93;;;;;;;;;;5060134;28;20021;-66
2023/10/16 06:57:13;;;;;;;12.70;7.07;;;;;;;;;;5058517;28;20028;-66
2023/10/16 06:59:39;;;;;;;16.65;8.15;;;;;;;;;;5056892;28;20362;-66
2023/10/16 07:02:08;;;;;;;15.15;7.22;;;;;;;;;;5070788;28;20385;-66
2023/10/16 07:04:40;;;;;;;10.75;6.80;;;;;;;;;;5059668;28;20029;-66
2023/10/16 07:07:14;;;;;;;12.25;6.57;;;;;;;;;;5062254;28;20599;-69
2023/10/16 07:09:47;;;;;;;13.68;6.97;;;;;;;;;;5055445;28;20033;-73
2023/10/16 07:12:13;;;;;;;15.48;6.90;;;;;;;;;;5052021;28;20037;-79
2023/10/16 07:14:39;;;;;;;13.25;6.70;;;;;;;;;;5058276;28;20036;-72
2023/10/16 07:17:05;;;;;;;14.73;7.10;;;;;;;;;;5064024;28;20025;-72
2023/10/16 07:19:31;;;;;;;10.85;6.85;;;;;;;;;;5054925;28;20108;-74
2023/10/16 07:22:00;;;;;;;12.10;6.55;;;;;;;;;;5041625;28;20462;-71
2023/10/16 07:24:26;;;;;;;11.50;6.70;;;;;;;;;;5046726;28;20029;-69
2023/10/16 07:26:52;;;;;;;14.95;6.25;;;;;;;;;;5062545;28;20107;-71
2023/10/16 07:29:21;;;;;;;10.80;6.88;;;;;;;;;;5051628;28;20536;-68
2023/10/16 07:31:49;;;;;;;11.30;6.25;;;;;;;;;;5055181;28;20033;-67
2023/10/16 07:34:15;;;;;;;9.88;5.72;;;;;;;;;;5058395;28;20413;-67
2023/10/16 07:36:42;;;;;;;8.32;5.15;;;;;;;;;;5060334;28;20538;-67
2023/10/16 07:39:08;;;;;;;9.43;5.82;;;;;;;;;;5052840;28;20059;-67
2023/10/16 07:41:37;;;;;;;8.63;5.32;;;;;;;;;;5057973;28;20016;-67
2023/10/16 07:44:04;;;;;;;10.30;5.30;;;;;;;;;;5063256;28;20040;-67
2023/10/16 07:46:30;;;;;;;16.88;5.72;;;;;;;;;;5056657;28;20013;-67
2023/10/16 07:49:09;;;;;;;8.98;5.32;;;;;;;;;;5054806;28;20086;-68
2023/10/16 07:51:36;;;;;;;12.40;6.35;;;;;;;;;;5053697;28;20098;-68
2023/10/16 07:54:06;;;;;;;9.63;5.70;;;;;;;;;;5067509;28;20103;-67
2023/10/16 07:56:33;;;;;;;8.45;5.78;;;;;;;;;;5050990;28;20025;-67
2023/10/16 08:01:54;;;;;;;11.10;5.45;;;;;;;;;;5049319;28;20039;-67
2023/10/16 08:06:52;;;;;;;9.52;5.43;;;4.80;99.90;;;;;;5059344;28;20473;-68
2023/10/16 08:11:57;;;;;;;12.98;5.78;;;5.00;99.90;;;;;;5050438;28;20029;-68
2023/10/16 08:14:27;;;;;;;8.18;5.15;;;5.10;99.90;;;;;;5052999;28;20488;-67
2023/10/16 08:16:58;;;;;;;11.73;5.55;;;5.30;99.90;;;;;;5056926;28;20733;-67
2023/10/16 08:19:31;;;;;;;13.73;6.18;;;;;;;;;;5045822;28;20062;-67
2023/10/16 08:21:58;;;;;;;10.35;5.55;;;;;;;;;;5049973;28;20025;-67
2023/10/16 08:24:24;;;;;;;7.72;4.72;;;;;;;;;;5062628;28;20381;-67
2023/10/16 08:26:51;;;;;;;12.15;5.18;;;;;;;;;;5052194;28;20059;-68
2023/10/16 08:29:19;;;;;;;7.90;4.93;;;;;;;;;;5049169;28;20039;-67
2023/10/16 08:31:47;;;;;;;11.68;4.85;;;;;;;;;;5051511;28;20025;-67
2023/10/16 08:34:14;;;;;;;10.23;5.53;;;;;;;;;;5052167;28;20041;-68
2023/10/16 08:36:40;;;;;;;10.07;5.30;;;;;;;;;;5048531;28;20035;-67
2023/10/16 08:39:09;;;;;;;11.32;5.03;;;;;;;;;;5058591;28;20025;-68
2023/10/16 08:42:01;;;;;;;14.68;5.03;;;;;;;;;;5052872;28;20445;-67
2023/10/16 08:44:28;;;;;;;12.85;5.82;;;;;;;;;;5053495;28;20028;-68
2023/10/16 08:49:24;;;;;;;13.47;5.40;;;;;;;;;;5060023;28;20044;-68
2023/10/16 08:52:09;;;;;;;8.60;5.30;;;;;;;;;;5068828;28;20031;-68
2023/10/16 08:57:16;;;;;;;9.38;5.07;;;;;;;;;;5048429;28;20036;-68
2023/10/16 08:59:42;;;;;;;11.57;5.55;;;;;;;;;;5054043;28;20035;-68
2023/10/16 09:02:11;;;;;;;11.77;5.55;;;;;;;;;;5039870;28;20662;-67
2023/10/16 09:04:38;;;;;;;9.48;5.15;;;;;;;;;;5049496;28;20036;-67
2023/10/16 09:07:04;;;;;;;12.30;4.97;;;;;;;;;;5055041;28;20029;-68
2023/10/16 09:09:31;;;;;;;10.20;4.72;;;;;;;;;;5064976;28;20036;-67
2023/10/16 09:12:03;;;;;;;12.05;5.20;;;;;;;;;;5035097;28;20377;-67
2023/10/16 09:14:30;;;;;;;11.70;5.97;;;;;;;;;;5057212;28;20025;-67
2023/10/16 09:16:58;;;;;;;14.50;5.28;;;;;;;;;;5059497;28;20036;-70
2023/10/16 09:19:34;;;;;;;11.68;4.95;;;;;;;;;;5065877;28;20029;-69
2023/10/16 09:22:09;;;;;;;15.60;5.85;;;;;;;;;;5030664;28;20071;-68
2023/10/16 09:24:36;;;;;;;13.23;6.47;;;;;;;;;;5060552;28;20052;-68
2023/10/16 09:27:16;;;;;;;13.00;5.82;;;;;;;;;;5062262;28;20024;-67
2023/10/16 09:29:55;;;;;;;11.48;5.53;;;;;;;;;;5044587;28;20029;-68
2023/10/16 09:32:34;;;;;;;12.07;5.20;;;;;;;;;;5053754;28;20036;-68
2023/10/16 09:35:11;;;;;;;9.75;5.15;;;;;;;;;;5066282;28;20247;-68
2023/10/16 09:37:37;;;;;;;8.73;5.05;;;;;;;;;;5068696;28;20021;-68
2023/10/16 09:40:19;;;;;;;10.63;5.45;;;;;;;;;;5059806;28;20194;-68
2023/10/16 09:42:55;;;;;;;10.13;5.05;;;9.00;99.90;;;;;;5055506;28;20021;-67
2023/10/16 09:45:24;;;;;;;9.90;5.45;;;8.90;99.90;;;;;;5062866;28;20026;-68
2023/10/16 09:47:52;;;;;;;10.55;5.43;;;8.80;99.90;;;;;;5036095;28;20025;-68
2023/10/16 09:50:19;;;;;;;12.02;5.13;;;8.90;99.90;;;;;;5060309;28;20417;-68
2023/10/16 09:52:46;;;;;;;8.25;5.70;;;8.90;99.90;;;;;;5061309;28;20086;-68
2023/10/16 09:55:12;;;;;;;13.25;5.30;;;9.10;99.90;;;;;;5056963;28;20021;-68
2023/10/16 09:57:52;;;;;;;11.68;4.93;;;9.20;99.90;;;;;;5059785;28;20133;-68
2023/10/16 10:00:28;;;;;;;11.88;4.47;;;9.30;99.90;;;;;;5059163;28;20449;-68
2023/10/16 10:03:05;;;;;;;16.33;4.60;;;9.50;99.90;;;;;;5060160;28;20064;-70
2023/10/16 10:05:48;;;;;;;8.55;3.67;;;9.50;99.90;;;;;;5053843;28;20981;-66
2023/10/16 10:08:39;;;;;;;12.25;4.30;;;9.60;99.90;;;;;;5065184;28;20047;-67
2023/10/16 10:11:17;;;;;;;9.85;4.10;;;9.60;99.90;;;;;;5059064;28;20032;-65
2023/10/16 10:14:08;;;;;;;6.45;3.90;;;9.70;99.90;;;;;;5046395;28;20485;-67
2023/10/16 10:16:35;;;;;;;9.13;3.95;;;9.80;99.90;;;;;;5061135;28;20704;-66
2023/10/16 10:19:04;;;;;;;5.13;3.58;;;10.00;99.90;;;;;;5070219;28;20166;-66
2023/10/16 10:21:44;;;;;;;5.50;3.25;;;10.00;99.90;;;;;;5056838;28;20039;-66
2023/10/16 10:24:15;;;;;;;4.90;3.05;;;10.20;99.90;;;;;;5061876;28;20029;-67
2023/10/16 10:27:05;;;;;;;6.30;3.00;;;10.20;99.90;;;;;;5067136;28;20043;-67
2023/10/16 10:29:31;;;;;;;7.53;3.25;;;10.30;99.90;;;;;;5037647;28;20053;-67
2023/10/16 10:32:06;;;;;;;8.40;2.95;;;10.40;99.90;;;;;;5052822;28;20048;-67
2023/10/16 10:34:31;;;;;;;5.45;2.72;;;10.40;99.90;;;;;;5044003;28;20064;-67
2023/10/16 10:37:00;;;;;;;4.47;3.17;;;10.50;99.90;;;;;;5053190;28;20033;-67
2023/10/16 10:42:03;;;;;;;5.72;2.60;;;10.60;99.90;;;;;;5052689;28;20385;-67
2023/10/16 10:44:45;;;;;;;5.82;2.17;;;10.50;99.90;;;;;;5052662;28;20058;-67
2023/10/16 10:47:21;;;;;;;5.72;2.40;;;10.50;99.90;;;;;;5049336;28;20048;-72
2023/10/16 10:49:49;;;;;;;4.82;1.80;;;;;;;;;;5042335;28;20082;-67
2023/10/16 10:52:16;;;;;;;4.97;2.03;;;;;;;;;;5050978;28;20029;-70
2023/10/16 10:54:44;;;;;;;3.72;1.60;;;;;;;;;;5052052;28;20128;-69
2023/10/16 10:57:19;;;;;;;4.05;1.30;;;;;;;;;;5052716;28;20101;-68
2023/10/16 10:59:55;;;;;;;2.53;1.20;;;;;;;;;;5052871;28;20021;-69
2023/10/16 11:02:36;;;;;;;3.17;0.95;;;;;;;;;;5051979;28;20037;-68
2023/10/16 11:05:22;;;;;;;4.93;1.50;;;;;;;;;;5032249;28;20480;-67
2023/10/16 11:08:17;;;;;;;1.33;0.80;;;;;;;;;;5049768;28;20025;-68
2023/10/16 11:10:39;;;;;;;4.18;1.02;;;;;;;;;;5052012;28;20346;-68
2023/10/16 11:13:05;;;;;;;;;;;;;;;;;;5052797;28;20033;-68
2023/10/16 11:15:31;;;;;;;2.97;1.40;;;;;;;;;;5051534;28;19917;-69
2023/10/16 11:18:05;;;;;;;4.20;1.15;;;;;;;;;;5047446;28;20017;-68
2023/10/16 11:20:32;;;;;;;1.15;1.00;;;;;;;;;;5051251;28;20040;-68
2023/10/16 11:22:58;;;;;;;1.83;1.00;;;;;;;;;;5048700;28;20025;-68
2023/10/16 11:25:30;;;;;;;0.93;0.70;;;;;;;;;;5051632;28;20032;-67
2023/10/16 11:28:07;;;;;;;2.80;1.10;;;;;;;;;;5051903;28;20029;-67
2023/10/16 11:30:38;;;;;;;3.55;1.65;;;;;;;;;;5043617;28;20037;-67
2023/10/16 11:33:08;;;;;;;3.58;1.13;;;12.00;98.90;;;;;;5050325;28;20053;-67
2023/10/16 11:35:35;;;;;;;2.97;1.27;;;11.80;99.40;;;;;;5054695;28;20079;-68
2023/10/16 11:38:12;;;;;;;7.32;0.95;;;11.80;99.30;;;;;;5036544;28;20633;-68
2023/10/16 11:40:39;;;;;;;0.75;0.75;;;11.90;99.30;;;;;;5061636;28;20106;-68
2023/10/16 11:43:11;;;;;;;1.52;0.93;;;12.10;98.00;;;;;;5066696;28;20650;-68
2023/10/16 11:45:38;;;;;;;3.03;1.17;;;12.20;98.10;;;;;;5062050;28;20029;-68
2023/10/16 11:51:15;;;;;;;1.98;1.10;;;12.30;97.90;;;;;;5054330;28;20102;-67
2023/10/16 11:53:41;;;;;;;2.25;1.20;;;;;;;;;;5040569;28;20025;-68
2023/10/16 11:56:13;;;;;;;2.47;1.25;;;;;;;;;;5029933;28;20462;-68
2023/10/16 11:58:39;;;;;;;1.80;1.20;;;;;;;;;;5060464;28;20050;-68
2023/10/16 12:01:09;;;;;;;3.42;1.30;;;;;;;;;;5063031;28;20025;-68
2023/10/16 12:03:37;;;;;;;2.13;1.27;;;;;;;;;;5057306;28;20347;-69
2023/10/16 12:06:07;;;;;;;4.60;0.88;;;;;;;;;;5060294;28;20492;-67
2023/10/16 12:08:33;;;;;;;1.40;1.10;;;12.90;99.90;;;;;;5066607;28;20087;-67
2023/10/16 12:11:01;;;;;;;2.65;1.38;;;13.20;96.80;;;;;;5067403;28;20433;-67
2023/10/16 12:13:29;;;;;;;5.57;1.10;;;13.50;96.70;;;;;;5056676;28;20029;-67
2023/10/16 12:15:55;;;;;;;4.93;1.52;;;13.80;96.70;;;;;;5057195;28;20361;-68
2023/10/16 12:18:22;;;;;;;2.75;1.30;;;14.10;96.20;;;;;;5068292;28;20043;-67
2023/10/16 12:20:48;;;;;;;1.73;1.50;;;14.40;99.90;;;;;;5055565;28;20029;-67
2023/10/16 12:23:13;;;;;;;2.30;1.55;;;14.40;99.90;;;;;;5060765;28;20032;-68
2023/10/16 12:25:39;;;;;;;2.63;1.10;;;14.40;99.90;;;;;;5040106;28;20028;-67
2023/10/16 12:28:08;;;;;;;2.33;1.27;;;14.20;99.90;;;;;;5050554;28;20079;-69
2023/10/16 12:30:36;;;;;;;3.72;1.50;;;14.20;99.90;;;;;;5051870;28;20122;-68
2023/10/16 12:33:06;;;;;;;2.13;1.33;;;14.40;99.40;;;;;;5058542;28;20052;-68
2023/10/16 12:35:34;;;;;;;2.17;1.25;;;14.50;99.00;;;;;;5064853;28;20033;-68
2023/10/16 12:38:04;;;;;;;1.40;1.10;;;14.70;99.90;;;;;;5045045;28;20124;-69
2023/10/16 12:40:39;;;;;;;1.67;1.13;;;15.20;99.90;;;;;;5057660;28;20550;-68
2023/10/16 12:43:08;;;;;;;3.88;1.33;;;15.70;99.90;;;;;;5058346;28;20021;-68
2023/10/16 12:45:34;;;;;;;2.90;1.30;;;16.30;99.90;;;;;;5063587;28;20086;-68
2023/10/16 12:47:59;;;;;;;3.05;1.00;;;16.80;98.70;;;;;;5054139;28;20017;-68
2023/10/16 12:50:26;;;;;;;1.85;0.90;;;17.00;98.80;;;;;;5062011;28;20040;-68
2023/10/16 12:52:56;;;;;;;2.28;1.08;;;17.20;98.20;;;;;;5055178;28;20369;-67
2023/10/16 12:55:22;;;;;;;1.00;0.88;;;17.20;98.30;;;;;;5049501;28;20090;-67
2023/10/16 12:57:50;;;;;;;1.67;1.30;;;16.80;97.70;;;;;;5054236;28;20488;-67
2023/10/16 13:00:17;;;;;;;2.80;1.38;;;15.60;98.00;;;;;;5063218;28;20043;-68
2023/10/16 13:02:45;;;;;;;1.60;1.50;;;15.30;99.10;;;;;;5061850;28;20033;-68
2023/10/16 13:05:15;;;;;;;5.47;1.40;;;15.00;99.80;;;;;;5054281;28;20043;-68
2023/10/16 13:07:44;;;;;;;3.10;1.20;;;15.10;99.20;;;;;;5057924;28;20029;-68
2023/10/16 13:10:15;;;;;;;2.58;1.20;;;15.30;98.70;;;;;;5051074;28;20041;-68
2023/10/16 13:12:41;;;;;;;;;;;15.40;98.70;;;;;;5045090;28;20033;-68
2023/10/16 13:15:14;;;;;;;2.13;1.45;;;15.40;98.30;;;;;;5053643;28;19930;-68
2023/10/16 13:17:41;;;;;;;1.92;1.27;;;15.00;98.90;;;;;;5055914;28;20029;-67
2023/10/16 13:20:19;;;;;;;4.10;1.42;;;14.80;99.40;;;;;;5069460;28;20028;-68
2023/10/16 13:22:49;;;;;;;3.40;1.15;;;14.80;98.60;;;;;;5058953;28;20480;-68
2023/10/16 13:25:37;;;;;;;3.33;1.38;;;14.70;98.90;;;;;;5061456;28;20028;-68
2023/10/16 13:28:03;;;;;;;2.90;1.17;;;14.50;99.40;;;;;;5046168;28;20029;-68
2023/10/16 13:30:31;;;;;;;2.58;0.98;;;14.60;99.40;;;;;;5053534;28;20036;-68
2023/10/16 13:33:00;;;;;;;1.63;0.90;;;14.60;99.70;;;;;;5059913;28;20048;-68
2023/10/16 13:35:26;;;;;;;2.27;1.53;;;14.50;99.70;;;;;;5049696;28;20033;-68
2023/10/16 13:37:52;;;;;;;4.35;1.45;;;14.50;99.90;;;;;;5055496;28;20255;-68
2023/10/16 13:40:22;;;;;;;2.10;1.30;;;14.40;99.90;;;;;;5054702;28;20033;-68
2023/10/16 13:42:52;;;;;;;1.73;1.27;;;14.20;99.90;;;;;;5065093;28;20059;-67
2023/10/16 13:45:18;;;;;;;2.05;1.20;;;14.10;99.90;;;;;;5030858;28;20645;-68
2023/10/16 13:47:44;;;;;;;1.70;1.20;;;14.20;99.90;;;;;;5057676;28;20125;-68
2023/10/16 13:50:13;;;;;;;2.00;1.25;;;14.40;99.90;;;;;;5060332;28;20595;-68
2023/10/16 13:52:43;;;;;;;1.30;0.85;;;14.50;99.90;;;;;;5044647;28;20025;-68
2023/10/16 13:55:13;;;;;;;1.65;1.35;;;14.70;99.90;;;;;;5054463;28;20362;-68
2023/10/16 13:57:42;;;;;;;2.38;1.05;;;14.80;99.90;;;;;;5055376;28;20017;-68
2023/10/16 14:00:28;;;;;;;3.53;1.30;;;14.70;99.90;;;;;;5062403;28;20392;-68
2023/10/16 14:03:07;;;;;;;2.42;1.10;;;14.70;99.90;;;;;;5053420;28;20032;-67
2023/10/16 14:05:52;;;;;;;4.05;1.17;;;14.70;99.90;;;;;;5056228;28;20017;-68
2023/10/16 14:08:26;;;;;;;2.35;0.90;;;14.70;99.90;;;;;;5059529;28;20481;-68
2023/10/16 14:10:52;;;;;;;1.52;1.08;;;14.70;99.90;;;;;;5047994;28;20059;-68
2023/10/16 14:13:26;;;;;;;2.60;1.20;;;14.70;99.90;;;;;;5056524;28;20032;-67
2023/10/16 14:15:56;;;;;;;1.10;1.00;;;14.60;99.90;;;;;;5056531;28;20039;-68
2023/10/16 14:18:25;;;;;;;4.05;1.02;;;14.50;99.90;;;;;;5057154;28;20432;-68
2023/10/16 14:20:51;;;;;;;4.20;0.95;;;14.40;99.90;;;;;;5065101;28;20033;-68
2023/10/16 14:23:19;;;;;;;3.08;1.15;;;14.20;99.90;;;;;;5063843;28;20028;-69
2023/10/16 14:25:48;;;;;;;1.77;0.90;;;14.00;99.90;;;;;;5058081;28;20032;-69
2023/10/16 14:28:40;;;;;;;2.53;1.00;;;14.00;99.90;;;;;;5060403;28;20056;-69
2023/10/16 14:31:09;;;;;;;2.55;1.20;;;13.90;99.90;;;;;;5073722;28;20036;-68
2023/10/16 14:33:36;;;;;;;2.05;1.10;;;13.80;99.90;;;;;;5059084;28;20478;-68
2023/10/16 14:36:07;;;;;;;2.60;1.08;;;13.70;99.90;;;;;;5061844;28;20032;-68
2023/10/16 14:38:33;;;;;;;1.98;0.93;;;13.70;99.90;;;;;;5061062;28;20100;-68
2023/10/16 14:41:17;;;;;;;1.95;0.80;;;13.60;99.90;;;;;;5061468;28;20025;-69
2023/10/16 14:43:47;;;;;;;2.75;1.02;;;13.60;99.90;;;;;;5063236;28;20020;-69
2023/10/16 14:46:13;;;;;;;3.17;0.95;;;13.60;99.90;;;;;;5064484;28;20025;-69
2023/10/16 14:48:43;;;;;;;1.23;0.70;;;13.60;99.90;;;;;;5068785;28;20064;-68
2023/10/16 14:51:16;;;;;;;1.95;1.05;;;13.60;99.90;;;;;;5066452;28;20419;-68
2023/10/16 14:53:43;;;;;;;2.03;1.08;;;13.40;99.90;;;;;;5066347;28;20031;-68
2023/10/16 14:56:09;;;;;;;1.77;0.90;;;13.30;99.90;;;;;;5048680;28;20116;-67
2023/10/16 14:58:35;;;;;;;2.67;1.10;;;13.20;99.90;;;;;;5062147;28;20021;-75
2023/10/16 15:01:12;;;;;;;2.38;0.90;;;13.20;99.90;;;;;;5060884;28;20036;-69
2023/10/16 15:03:39;;;;;;;2.05;0.90;;;13.10;99.90;;;;;;5062956;28;20028;-66
2023/10/16 15:06:05;;;;;;;3.45;1.35;;;13.10;99.90;;;;;;5068355;28;20056;-67
2023/10/16 15:08:33;;;;;;;3.08;1.00;;;;;;;;;;5056161;28;20037;-66
2023/10/16 15:10:59;;;;;;;4.97;2.20;;;;;;;;;;5064546;28;20121;-68
2023/10/16 15:13:27;;;;;;;1.17;0.85;;;;;;;;;;5054305;28;20025;-67
2023/10/16 15:15:55;;;;;;;3.35;0.82;;;;;;;;;;5057169;28;20029;-66
2023/10/16 15:18:22;;;;;;;2.90;0.98;;;;;;;;;;5056412;28;20033;-67
2023/10/16 15:20:48;;;;;;;2.88;1.15;;;;;;;;;;5059571;28;20029;-67
2023/10/16 15:23:14;;;;;;;1.00;0.55;;;;;;;;;;5056440;28;20024;-68
2023/10/16 15:25:41;;;;;;;1.65;1.00;;;;;;;;;;5059773;28;20025;-66
2023/10/16 15:28:09;;;;;;;2.92;1.10;;;;;;;;;;5051839;28;20021;-67
2023/10/16 15:30:38;;;;;;;1.08;0.75;;;;;;;;;;5050664;28;20115;-66
2023/10/16 15:33:06;;;;;;;1.77;1.17;;;12.30;99.90;;;;;;5052583;28;20048;-65
2023/10/16 15:35:32;;;;;;;4.57;1.23;;;12.30;99.90;;;;;;5061068;28;20859;-68
2023/10/16 15:37:59;;;;;;;2.47;1.60;;;12.20;99.90;;;;;;5060808;28;20032;-68
2023/10/16 15:40:28;;;;;;;5.40;2.50;;;12.10;99.90;;;;;;5059417;28;20039;-68
2023/10/16 15:42:59;;;;;;;9.23;4.60;;;12.10;99.90;;;;;;5061503;28;20060;-68
2023/10/16 15:45:25;;;;;;;4.97;2.72;;;12.00;99.90;;;;;;5054563;28;20067;-68
2023/10/16 15:48:01;;;;;;;2.38;1.25;;;11.80;99.90;;;;;;5049123;28;20024;-68
2023/10/16 15:50:31;;;;;;;2.85;1.73;;;;;;;;;;5056878;28;20035;-68
2023/10/16 15:52:57;;;;;;;3.95;1.23;;;;;;;;;;5060648;28;20063;-68
2023/10/16 15:55:26;;;;;;;2.90;1.30;;;;;;;;;;5068892;28;20056;-68
2023/10/16 15:57:54;;;;;;;1.65;1.05;;;;;;;;;;5049669;28;20060;-68
2023/10/16 16:00:25;;;;;;;1.88;1.13;;;;;;;;;;5057324;28;20020;-69
2023/10/16 16:02:52;;;;;;;2.22;1.08;;;;;;;;;;5065865;28;20103;-68
2023/10/16 16:05:18;;;;;;;2.65;1.00;;;;;;;;;;5066620;28;20024;-68
2023/10/16 16:07:44;;;;;;;1.48;1.00;;;;;;;;;;5055786;28;20031;-68